createdAt,value
2017-08-14T00:01:30.975Z,100978.44
2017-08-14T00:03:58.388Z,100974.59
2017-08-14T00:06:25.783Z,100973.77
2017-08-14T00:08:53.194Z,100976.28
2017-08-14T00:11:20.591Z,100985.03
2017-08-14T00:13:47.998Z,100973.80
2017-08-14T00:16:15.423Z,100972.92
2017-08-14T00:18:42.825Z,100967.38
2017-08-14T00:21:10.218Z,100971.45
2017-08-14T00:23:37.639Z,100966.59
2017-08-14T00:26:05.057Z,100974.98
2017-08-14T00:28:32.451Z,100970.62
2017-08-14T00:30:59.876Z,100976.37
2017-08-14T00:33:27.269Z,100978.14
2017-08-14T00:35:54.671Z,100975.11
2017-08-14T00:38:22.095Z,100975.02
2017-08-14T00:40:49.496Z,100971.86
2017-08-14T00:43:16.899Z,100980.13
2017-08-14T00:45:44.308Z,100974.67
2017-08-14T00:48:11.706Z,100974.41
2017-08-14T00:50:39.106Z,100969.86
2017-08-14T00:53:06.523Z,100972.80
2017-08-14T00:55:33.919Z,100971.69
2017-08-14T00:58:01.322Z,100969.05
2017-08-14T01:00:28.751Z,100971.10
2017-08-14T01:02:56.147Z,100975.22
2017-08-14T01:05:23.551Z,100976.75
2017-08-14T01:07:51.183Z,100978.84
2017-08-14T01:10:18.580Z,100976.41
2017-08-14T01:12:45.975Z,100972.34
2017-08-14T01:15:13.383Z,100970.65
2017-08-14T01:17:40.779Z,100965.81
2017-08-14T01:20:08.175Z,100966.27
2017-08-14T01:22:35.599Z,100958.23
2017-08-14T01:25:02.995Z,100961.78
2017-08-14T01:27:30.394Z,100963.92
2017-08-14T01:29:57.817Z,100960.80
2017-08-14T01:32:25.207Z,100958.50
2017-08-14T01:34:52.607Z,100955.22
2017-08-14T01:37:20.014Z,100956.50
2017-08-14T01:39:47.410Z,100958.48
2017-08-14T01:42:14.811Z,100955.20
2017-08-14T01:44:42.223Z,100953.23
2017-08-14T01:47:09.624Z,100954.61
2017-08-14T01:49:37.024Z,100952.02
2017-08-14T01:52:04.438Z,100949.59
2017-08-14T01:54:31.834Z,100943.21
2017-08-14T01:56:59.239Z,100939.72
2017-08-14T01:59:26.647Z,100942.52
2017-08-14T02:01:54.056Z,100934.38
2017-08-14T02:04:21.446Z,100934.61
2017-08-14T02:06:48.868Z,100936.16
2017-08-14T02:09:16.268Z,100935.88
2017-08-14T02:11:43.670Z,100932.42
2017-08-14T02:14:11.081Z,100929.44
2017-08-14T02:16:38.487Z,100930.78
2017-08-14T02:19:05.882Z,100923.86
2017-08-14T02:21:33.296Z,100924.60
2017-08-14T02:24:00.707Z,100932.17
2017-08-14T02:26:28.107Z,100930.02
2017-08-14T02:28:55.523Z,100935.49
2017-08-14T02:31:22.920Z,100932.33
2017-08-14T02:33:50.320Z,100927.29
2017-08-14T02:36:17.735Z,100922.73
2017-08-14T02:38:45.139Z,100922.23
2017-08-14T02:41:12.539Z,100921.51
2017-08-14T02:43:39.995Z,100917.48
2017-08-14T02:46:07.392Z,100921.20
2017-08-14T02:48:34.802Z,100924.63
2017-08-14T02:51:02.219Z,100919.38
2017-08-14T02:53:29.624Z,100923.93
2017-08-14T02:55:57.018Z,100922.05
2017-08-14T02:58:24.424Z,100918.75
2017-08-14T03:00:51.819Z,100925.03
2017-08-14T03:03:19.229Z,100917.73
2017-08-14T03:05:46.643Z,100909.70
2017-08-14T03:08:14.039Z,100912.19
2017-08-14T03:10:41.435Z,100920.34
2017-08-14T03:13:08.859Z,100919.33
2017-08-14T03:15:36.260Z,100915.07
2017-08-14T03:18:03.651Z,100915.00
2017-08-14T03:20:31.076Z,100913.57
2017-08-14T03:22:58.471Z,100914.61
2017-08-14T03:25:25.874Z,100916.69
2017-08-14T03:27:53.291Z,100910.19
2017-08-14T03:30:20.697Z,100904.51
2017-08-14T03:32:48.098Z,100896.58
2017-08-14T03:35:15.530Z,100900.16
2017-08-14T03:37:42.931Z,100898.64
2017-08-14T03:40:10.327Z,100894.94
2017-08-14T03:42:37.924Z,100893.09
2017-08-14T03:45:05.319Z,100888.68
2017-08-14T03:47:32.719Z,100891.98
2017-08-14T03:50:00.126Z,100893.02
2017-08-14T03:52:27.522Z,100891.08
2017-08-14T03:54:54.919Z,100892.52
2017-08-14T03:57:22.345Z,100889.26
2017-08-14T03:59:49.741Z,100891.14
2017-08-14T04:02:17.139Z,100894.78
2017-08-14T04:04:44.551Z,100894.00
2017-08-14T04:07:11.955Z,100892.96
2017-08-14T04:09:39.354Z,100893.84
2017-08-14T04:12:06.766Z,100894.52
2017-08-14T04:14:34.163Z,100894.22
2017-08-14T04:17:01.564Z,100897.87
2017-08-14T04:19:28.984Z,100890.64
2017-08-14T04:21:56.382Z,100890.44
2017-08-14T04:24:23.779Z,100888.91
2017-08-14T04:26:51.203Z,100888.93
2017-08-14T04:29:18.604Z,100886.53
2017-08-14T04:31:46.003Z,100893.11
2017-08-14T04:34:13.420Z,100898.52
2017-08-14T04:36:40.817Z,100894.48
2017-08-14T04:39:08.224Z,100891.73
2017-08-14T04:41:35.655Z,100892.55
2017-08-14T04:44:03.062Z,100894.92
2017-08-14T04:46:30.463Z,100894.00
2017-08-14T04:48:57.885Z,100891.00
2017-08-14T04:51:25.279Z,100896.33
2017-08-14T04:53:52.679Z,100893.69
2017-08-14T04:56:20.092Z,100889.16
2017-08-14T04:58:47.486Z,100896.06
2017-08-14T05:01:14.887Z,100893.38
2017-08-14T05:03:42.299Z,100891.00
2017-08-14T05:06:09.691Z,100893.05
2017-08-14T05:08:37.103Z,100895.80
2017-08-14T05:11:04.563Z,100897.25
2017-08-14T05:13:31.952Z,100906.92
2017-08-14T05:15:59.364Z,100901.97
2017-08-14T05:18:26.764Z,100899.11
2017-08-14T05:20:54.178Z,100899.31
2017-08-14T05:23:21.572Z,100899.73
2017-08-14T05:25:48.971Z,100893.02
2017-08-14T05:28:16.387Z,100897.25
2017-08-14T05:30:43.782Z,100897.55
2017-08-14T05:33:11.196Z,100897.53
2017-08-14T05:35:38.598Z,100897.00
2017-08-14T05:38:05.999Z,100904.19
2017-08-14T05:40:33.395Z,100898.37
2017-08-14T05:43:00.804Z,100895.59
2017-08-14T05:45:28.200Z,100899.58
2017-08-14T05:47:55.591Z,100903.22
2017-08-14T05:50:23.002Z,100900.93
2017-08-14T05:52:50.399Z,100897.72
2017-08-14T05:55:17.815Z,100904.16
2017-08-14T05:57:45.215Z,100903.38
2017-08-14T06:00:12.611Z,100900.85
2017-08-14T06:02:40.019Z,100892.70
2017-08-14T06:05:07.419Z,100891.21
2017-08-14T06:07:34.852Z,100897.27
2017-08-14T06:10:02.228Z,100895.66
2017-08-14T06:12:29.627Z,100894.84
2017-08-14T06:14:57.034Z,100901.20
2017-08-14T06:17:24.438Z,100897.22
2017-08-14T06:19:51.863Z,100902.05
2017-08-14T06:22:19.264Z,100902.74
2017-08-14T06:24:46.674Z,100902.45
2017-08-14T06:27:14.076Z,100903.53
2017-08-14T06:29:41.476Z,100909.67
2017-08-14T06:32:08.894Z,100900.94
2017-08-14T06:34:36.300Z,100903.70
2017-08-14T06:37:03.698Z,100909.87
2017-08-14T06:39:31.125Z,100912.28
2017-08-14T06:41:58.529Z,100909.98
2017-08-14T06:44:25.948Z,100904.91
2017-08-14T06:46:53.343Z,100904.97
2017-08-14T06:49:20.746Z,100907.32
2017-08-14T06:51:48.155Z,100912.91
2017-08-14T06:54:15.550Z,100916.84
2017-08-14T06:56:42.978Z,100920.73
2017-08-14T06:59:10.385Z,100917.52
2017-08-14T07:01:37.788Z,100916.84
2017-08-14T07:04:05.194Z,100919.59
2017-08-14T07:06:32.592Z,100909.97
2017-08-14T07:09:00.002Z,100913.02
2017-08-14T07:11:27.403Z,100910.94
2017-08-14T07:13:54.829Z,100900.22
2017-08-14T07:16:22.243Z,100906.22
2017-08-14T07:18:49.638Z,100908.56
2017-08-14T07:21:17.051Z,100904.52
2017-08-14T07:23:44.455Z,100901.42
2017-08-14T07:26:11.847Z,100909.52
2017-08-14T07:28:39.259Z,100907.38
2017-08-14T07:31:06.667Z,100909.84
2017-08-14T07:33:34.087Z,100913.33
2017-08-14T07:36:01.488Z,100910.61
2017-08-14T07:38:28.887Z,100902.11
2017-08-14T07:40:56.294Z,100907.25
2017-08-14T07:43:23.703Z,100900.58
2017-08-14T07:45:51.143Z,100904.91
2017-08-14T07:48:18.539Z,100903.82
2017-08-14T07:50:45.934Z,100902.13
2017-08-14T07:53:13.342Z,100896.20
2017-08-14T07:55:40.731Z,100897.25
2017-08-14T07:58:08.143Z,100888.19
2017-08-14T08:00:35.539Z,100893.66
2017-08-14T08:03:02.931Z,100890.87
2017-08-14T08:05:30.335Z,100884.14
2017-08-14T08:07:57.732Z,100881.86
2017-08-14T08:10:25.160Z,100883.73
2017-08-14T08:12:52.559Z,100890.28
2017-08-14T08:15:19.954Z,100882.55
2017-08-14T08:17:47.368Z,100880.78
2017-08-14T08:20:14.775Z,100885.41
2017-08-14T08:22:42.197Z,100883.16
2017-08-14T08:25:09.590Z,100880.25
2017-08-14T08:27:36.987Z,100882.23
2017-08-14T08:30:04.387Z,100879.98
2017-08-14T08:32:31.779Z,100879.00
2017-08-14T08:34:59.183Z,100881.95
2017-08-14T08:37:26.579Z,100884.08
2017-08-14T08:39:53.972Z,100884.64
2017-08-14T08:42:21.374Z,100883.66
2017-08-14T08:44:48.771Z,100883.81
2017-08-14T08:47:16.199Z,100883.12
2017-08-14T08:49:43.590Z,100882.91
2017-08-14T08:52:11.000Z,100886.77
2017-08-14T08:54:38.410Z,100882.42
2017-08-14T08:57:05.799Z,100883.47
2017-08-14T08:59:33.215Z,100874.20
2017-08-14T09:02:00.620Z,100874.83
2017-08-14T09:04:28.012Z,100878.39
2017-08-14T09:06:55.410Z,100873.42
2017-08-14T09:09:22.803Z,100869.52
2017-08-14T09:11:50.217Z,100866.70
2017-08-14T09:14:17.607Z,100866.54
2017-08-14T09:16:44.999Z,100872.62
2017-08-14T09:19:12.417Z,100873.57
2017-08-14T09:21:39.819Z,100872.17
2017-08-14T09:24:07.232Z,100869.22
2017-08-14T09:26:34.624Z,100869.30
2017-08-14T09:29:02.017Z,100869.02
2017-08-14T09:31:29.415Z,100864.37
2017-08-14T09:33:56.807Z,100863.42
2017-08-14T09:36:24.215Z,100855.52
2017-08-14T09:38:51.617Z,100857.03
2017-08-14T09:41:19.004Z,100851.81
2017-08-14T09:43:46.415Z,100856.86
2017-08-14T09:46:13.827Z,100854.18
2017-08-14T09:48:41.231Z,100851.43
2017-08-14T09:51:08.623Z,100843.31
2017-08-14T09:53:36.016Z,100844.39
2017-08-14T09:56:03.420Z,100850.37
2017-08-14T09:58:30.807Z,100845.59
2017-08-14T10:00:58.228Z,100842.46
2017-08-14T10:03:25.624Z,100838.82
2017-08-14T10:05:53.016Z,100839.70
2017-08-14T10:08:20.728Z,100835.04
2017-08-14T10:10:48.136Z,100832.58
2017-08-14T10:13:15.539Z,100836.36
2017-08-14T10:15:42.927Z,100832.88
2017-08-14T10:18:10.318Z,100828.89
2017-08-14T10:20:37.718Z,100830.41
2017-08-14T10:23:05.108Z,100824.63
2017-08-14T10:25:32.511Z,100822.92
2017-08-14T10:27:59.915Z,100822.34
2017-08-14T10:30:27.311Z,100816.50
2017-08-14T10:32:54.707Z,100815.91
2017-08-14T10:35:22.101Z,100817.30
2017-08-14T10:37:49.511Z,100817.83
2017-08-14T10:40:16.903Z,100819.48
2017-08-14T10:42:44.297Z,100810.73
2017-08-14T10:45:11.695Z,100809.34
2017-08-14T10:47:39.095Z,100808.28
2017-08-14T10:50:06.506Z,100802.54
2017-08-14T10:52:33.896Z,100805.12
2017-08-14T10:55:01.296Z,100801.78
2017-08-14T10:57:28.695Z,100796.30
2017-08-14T10:59:56.086Z,100792.11
2017-08-14T11:02:23.495Z,100791.77
2017-08-14T11:04:50.887Z,100793.23
2017-08-14T11:07:18.288Z,100793.31
2017-08-14T11:09:45.678Z,100789.91
2017-08-14T11:12:13.076Z,100788.64
2017-08-14T11:14:40.483Z,100784.64
2017-08-14T11:17:07.874Z,100782.63
2017-08-14T11:19:35.275Z,100773.80
2017-08-14T11:22:02.688Z,100772.83
2017-08-14T11:24:30.075Z,100765.68
2017-08-14T11:26:57.491Z,100759.74
2017-08-14T11:29:24.894Z,100755.85
2017-08-14T11:31:52.315Z,100764.58
2017-08-14T11:34:19.711Z,100752.41
2017-08-14T11:36:47.115Z,100745.55
2017-08-14T11:39:14.523Z,100744.88
2017-08-14T11:41:41.934Z,100743.01
2017-08-14T11:44:09.326Z,100746.44
2017-08-14T11:46:36.740Z,100744.73
2017-08-14T11:49:04.137Z,100744.48
2017-08-14T11:51:31.569Z,100739.89
2017-08-14T11:53:58.964Z,100741.48
2017-08-14T11:56:26.356Z,100738.20
2017-08-14T11:58:53.755Z,100730.92
2017-08-14T12:01:21.151Z,100726.06
2017-08-14T12:03:48.567Z,100729.30
2017-08-14T12:06:15.954Z,100724.16
2017-08-14T12:08:43.348Z,100723.03
2017-08-14T12:11:10.743Z,100719.70
2017-08-14T12:13:38.132Z,100719.34
2017-08-14T12:16:05.536Z,100716.73
2017-08-14T12:18:32.933Z,100712.79
2017-08-14T12:21:00.324Z,100710.09
2017-08-14T12:23:27.728Z,100702.77
2017-08-14T12:25:55.127Z,100697.16
2017-08-14T12:28:22.541Z,100705.63
2017-08-14T12:30:49.928Z,100699.20
2017-08-14T12:33:18.176Z,100700.97
2017-08-14T12:35:45.572Z,100698.81
2017-08-14T12:38:12.959Z,100695.05
2017-08-14T12:40:40.391Z,100700.09
2017-08-14T12:43:07.788Z,100698.04
2017-08-14T12:45:35.503Z,100700.45
2017-08-14T12:48:02.915Z,100697.40
2017-08-14T12:50:30.303Z,100698.80
2017-08-14T12:52:57.711Z,100691.67
2017-08-14T12:55:25.108Z,100693.47
2017-08-14T12:57:52.498Z,100687.34
2017-08-14T13:00:19.900Z,100677.27
2017-08-14T13:02:47.296Z,100673.36
2017-08-14T13:05:14.723Z,100666.56
2017-08-14T13:07:42.110Z,100672.37
2017-08-14T13:10:09.501Z,100662.42
2017-08-14T13:12:36.899Z,100659.34
2017-08-14T13:15:04.299Z,100662.59
2017-08-14T13:17:31.698Z,100657.86
2017-08-14T13:19:59.094Z,100655.72
2017-08-14T13:22:26.486Z,100653.20
2017-08-14T13:24:53.891Z,100649.33
2017-08-14T13:27:21.295Z,100645.91
2017-08-14T13:29:48.702Z,100644.96
2017-08-14T13:32:16.103Z,100640.66
2017-08-14T13:34:43.507Z,100638.48
2017-08-14T13:37:10.910Z,100642.56
2017-08-14T13:39:38.312Z,100635.81
2017-08-14T13:42:05.705Z,100629.66
2017-08-14T13:44:33.103Z,100633.27
2017-08-14T13:47:00.499Z,100628.16
2017-08-14T13:49:27.892Z,100624.78
2017-08-14T13:51:55.290Z,100621.17
2017-08-14T13:54:22.683Z,100624.56
2017-08-14T13:56:50.092Z,100629.49
2017-08-14T13:59:17.487Z,100626.30
2017-08-14T14:01:44.892Z,100617.80
2017-08-14T14:04:12.291Z,100613.41
2017-08-14T14:06:39.686Z,100617.78
2017-08-14T14:09:07.103Z,100616.43
2017-08-14T14:11:34.495Z,100613.87
2017-08-14T14:14:01.908Z,100614.61
2017-08-14T14:16:29.311Z,100603.33
2017-08-14T14:18:56.713Z,100609.34
2017-08-14T14:21:24.116Z,100597.20
2017-08-14T14:23:51.512Z,100588.56
2017-08-14T14:26:18.935Z,100590.90
2017-08-14T14:28:46.335Z,100584.61
2017-08-14T14:31:13.735Z,100585.98
2017-08-14T14:33:41.140Z,100590.69
2017-08-14T14:36:08.585Z,100585.73
2017-08-14T14:38:35.995Z,100579.07
2017-08-14T14:41:03.403Z,100576.00
2017-08-14T14:43:30.823Z,100571.57
2017-08-14T14:45:58.216Z,100570.46
2017-08-14T14:48:25.623Z,100573.52
2017-08-14T14:50:53.041Z,100568.67
2017-08-14T14:53:20.435Z,100566.34
2017-08-14T14:55:47.852Z,100563.77
2017-08-14T14:58:15.257Z,100562.13
2017-08-14T15:00:42.689Z,100561.90
2017-08-14T15:03:10.088Z,100555.37
2017-08-14T15:05:37.488Z,100559.10
2017-08-14T15:08:04.887Z,100554.36
2017-08-14T15:10:32.299Z,100552.20
2017-08-14T15:12:59.699Z,100548.80
2017-08-14T15:15:27.116Z,100550.51
2017-08-14T15:17:54.523Z,100557.45
2017-08-14T15:20:22.176Z,100549.05
2017-08-14T15:22:49.587Z,100541.93
2017-08-14T15:25:16.988Z,100539.89
2017-08-14T15:27:44.428Z,100537.14
2017-08-14T15:30:11.801Z,100542.23
2017-08-14T15:32:39.195Z,100541.28
2017-08-14T15:35:06.608Z,100532.73
2017-08-14T15:37:34.006Z,100536.75
2017-08-14T15:40:01.431Z,100532.63
2017-08-14T15:42:28.831Z,100534.92
2017-08-14T15:44:56.239Z,100535.09
2017-08-14T15:47:23.639Z,100534.34
2017-08-14T15:49:51.053Z,100530.05
2017-08-14T15:52:18.495Z,100523.98
2017-08-14T15:54:45.900Z,100529.22
2017-08-14T15:57:13.283Z,100525.03
2017-08-14T15:59:40.691Z,100521.56
2017-08-14T16:02:08.087Z,100511.31
2017-08-14T16:04:35.503Z,100511.37
2017-08-14T16:07:02.899Z,100523.45
2017-08-14T16:09:30.291Z,100518.22
2017-08-14T16:11:57.709Z,100510.81
2017-08-14T16:14:25.110Z,100514.81
2017-08-14T16:16:52.530Z,100509.44
2017-08-14T16:19:42.614Z,100512.63
2017-08-14T16:22:10.034Z,100508.01
2017-08-14T16:24:37.433Z,100508.61
2017-08-14T16:27:04.839Z,100506.77
2017-08-14T16:29:32.248Z,100501.39
2017-08-14T16:31:59.654Z,100504.05
2017-08-14T16:34:27.063Z,100506.41
2017-08-14T16:36:54.468Z,100497.86
2017-08-14T16:39:21.865Z,100490.20
2017-08-14T16:41:49.271Z,100489.64
2017-08-14T16:44:16.669Z,100486.75
2017-08-14T16:46:44.077Z,100481.59
2017-08-14T16:49:11.480Z,100481.36
2017-08-14T16:51:38.897Z,100484.45
2017-08-14T16:54:06.299Z,100488.00
2017-08-14T16:56:33.704Z,100479.30
2017-08-14T16:59:01.111Z,100477.86
2017-08-14T17:01:28.525Z,100475.52
2017-08-14T17:03:55.920Z,100473.66
2017-08-14T17:06:23.316Z,100470.25
2017-08-14T17:08:50.727Z,100472.38
2017-08-14T17:11:18.132Z,100467.27
2017-08-14T17:13:45.531Z,100464.89
2017-08-14T17:16:12.947Z,100466.89
2017-08-14T17:18:40.342Z,100467.17
2017-08-14T17:21:07.771Z,100470.55
2017-08-14T17:23:35.172Z,100472.16
2017-08-14T17:26:02.570Z,100474.44
2017-08-14T17:28:29.983Z,100471.73
2017-08-14T17:30:57.374Z,100469.73
2017-08-14T17:33:24.795Z,100473.00
2017-08-14T17:35:52.195Z,100476.32
2017-08-14T17:38:19.596Z,100473.48
2017-08-14T17:40:47.052Z,100476.06
2017-08-14T17:43:14.454Z,100474.91
2017-08-14T17:45:41.855Z,100470.65
2017-08-14T17:48:09.276Z,100474.91
2017-08-14T17:50:36.683Z,100471.45
2017-08-14T17:53:04.090Z,100472.86
2017-08-14T17:55:31.502Z,100467.87
2017-08-14T17:57:58.907Z,100471.36
2017-08-14T18:00:26.309Z,100467.58
2017-08-14T18:02:53.728Z,100468.04
2017-08-14T18:05:21.128Z,100467.33
2017-08-14T18:07:48.527Z,100470.10
2017-08-14T18:10:15.943Z,100466.53
2017-08-14T18:12:43.348Z,100466.56
2017-08-14T18:15:10.743Z,100468.85
2017-08-14T18:17:38.150Z,100463.61
2017-08-14T18:20:05.548Z,100465.41
2017-08-14T18:22:32.953Z,100462.67
2017-08-14T18:25:00.370Z,100462.52
2017-08-14T18:27:27.772Z,100468.94
2017-08-14T18:29:55.176Z,100468.84
2017-08-14T18:32:22.587Z,100470.30
2017-08-14T18:34:49.988Z,100464.56
2017-08-14T18:37:17.382Z,100469.06
2017-08-14T18:39:44.808Z,100468.61
2017-08-14T18:42:12.216Z,100467.46
2017-08-14T18:44:39.616Z,100467.64
2017-08-14T18:47:07.036Z,100465.65
2017-08-14T18:49:34.435Z,100467.42
2017-08-14T18:52:01.836Z,100464.19
2017-08-14T18:54:29.245Z,100465.42
2017-08-14T18:56:56.642Z,100462.94
2017-08-14T18:59:24.043Z,100460.92
2017-08-14T19:01:51.459Z,100455.89
2017-08-14T19:04:18.859Z,100464.14
2017-08-14T19:06:46.264Z,100470.98
2017-08-14T19:09:15.307Z,100470.95
2017-08-14T19:11:41.079Z,100474.38
2017-08-14T19:14:08.485Z,100480.45
2017-08-14T19:16:35.919Z,100488.95
2017-08-14T19:19:03.324Z,100503.61
2017-08-14T19:21:30.720Z,100503.69
2017-08-14T19:23:58.135Z,100499.36
2017-08-14T19:26:25.535Z,100497.05
2017-08-14T19:28:52.940Z,100489.64
2017-08-14T19:31:20.359Z,100487.04
2017-08-14T19:33:47.760Z,100483.39
2017-08-14T19:36:15.211Z,100485.83
2017-08-14T19:38:42.625Z,100481.75
2017-08-14T19:41:10.021Z,100485.45
2017-08-14T19:43:37.420Z,100492.48
2017-08-14T19:46:04.844Z,100491.44
2017-08-14T19:48:32.291Z,100488.55
2017-08-14T19:50:59.675Z,100495.80
2017-08-14T19:53:27.099Z,100488.91
2017-08-14T19:55:54.502Z,100488.94
2017-08-14T19:58:21.907Z,100490.38
2017-08-14T20:00:49.314Z,100486.95
2017-08-14T20:03:16.720Z,100492.72
2017-08-14T20:05:44.107Z,100485.52
2017-08-14T20:08:11.523Z,100487.02
2017-08-14T20:10:38.919Z,100485.36
2017-08-14T20:13:06.323Z,100492.56
2017-08-14T20:15:33.739Z,100490.00
2017-08-14T20:18:01.139Z,100478.76
2017-08-14T20:20:28.535Z,100481.36
2017-08-14T20:22:55.950Z,100490.63
2017-08-14T20:25:23.375Z,100494.03
2017-08-14T20:27:50.772Z,100491.20
2017-08-14T20:30:18.192Z,100487.02
2017-08-14T20:32:45.599Z,100487.95
2017-08-14T20:35:13.008Z,100492.44
2017-08-14T20:37:40.448Z,100485.02
2017-08-14T20:40:07.847Z,100490.56
2017-08-14T20:42:35.246Z,100491.96
2017-08-14T20:45:02.671Z,100495.59
2017-08-14T20:47:30.071Z,100497.10
2017-08-14T20:49:57.472Z,100495.62
2017-08-14T20:52:24.888Z,100495.33
2017-08-14T20:54:52.285Z,100489.90
2017-08-14T20:57:19.698Z,100490.20
2017-08-14T20:59:47.110Z,100489.64
2017-08-14T21:02:14.524Z,100488.30
2017-08-14T21:04:41.941Z,100489.36
2017-08-14T21:07:09.583Z,100485.55
2017-08-14T21:09:36.983Z,100489.23
2017-08-14T21:12:04.391Z,100483.00
2017-08-14T21:14:31.803Z,100479.34
2017-08-14T21:16:59.212Z,100477.17
2017-08-14T21:19:26.614Z,100483.27
2017-08-14T21:21:54.031Z,100484.09
2017-08-14T21:24:21.431Z,100476.23
2017-08-14T21:26:48.831Z,100481.41
2017-08-14T21:29:16.248Z,100484.52
2017-08-14T21:31:43.639Z,100477.18
2017-08-14T21:34:11.050Z,100479.09
2017-08-14T21:36:38.453Z,100475.97
2017-08-14T21:39:05.854Z,100478.55
2017-08-14T21:41:33.255Z,100472.71
2017-08-14T21:44:00.704Z,100470.70
2017-08-14T21:46:28.102Z,100476.77
2017-08-14T21:48:55.502Z,100482.48
2017-08-14T21:51:22.916Z,100478.41
2017-08-14T21:53:50.311Z,100479.06
2017-08-14T21:56:17.706Z,100474.59
2017-08-14T21:58:45.116Z,100481.24
2017-08-14T22:01:12.515Z,100486.27
2017-08-14T22:03:39.927Z,100483.11
2017-08-14T22:06:07.344Z,100484.84
2017-08-14T22:08:34.740Z,100486.45
2017-08-14T22:11:02.139Z,100488.75
2017-08-14T22:13:29.553Z,100489.55
2017-08-14T22:15:56.951Z,100482.92
2017-08-14T22:18:24.351Z,100485.07
2017-08-14T22:20:51.766Z,100479.11
2017-08-14T22:23:19.163Z,100479.40
2017-08-14T22:25:46.564Z,100481.53
2017-08-14T22:28:13.986Z,100474.11
2017-08-14T22:30:41.391Z,100480.58
2017-08-14T22:33:08.784Z,100479.92
2017-08-14T22:35:36.199Z,100476.67
2017-08-14T22:38:03.598Z,100473.27
2017-08-14T22:40:30.995Z,100472.97
2017-08-14T22:42:58.411Z,100469.99
2017-08-14T22:45:25.816Z,100467.97
2017-08-14T22:47:53.219Z,100469.03
2017-08-14T22:50:20.635Z,100461.58
2017-08-14T22:52:48.032Z,100463.08
2017-08-14T22:55:15.436Z,100466.70
2017-08-14T22:57:42.844Z,100463.89
2017-08-14T23:00:10.250Z,100463.34
2017-08-14T23:02:37.643Z,100458.98
2017-08-14T23:05:05.064Z,100462.34
2017-08-14T23:07:32.460Z,100464.78
2017-08-14T23:09:59.862Z,100460.98
2017-08-14T23:12:27.282Z,100454.09
2017-08-14T23:14:54.684Z,100454.34
2017-08-14T23:17:22.087Z,100448.11
2017-08-14T23:19:49.500Z,100446.48
2017-08-14T23:22:16.897Z,100452.72
2017-08-14T23:24:44.295Z,100447.30
2017-08-14T23:27:11.710Z,100446.34
2017-08-14T23:29:39.103Z,100446.07
2017-08-14T23:32:06.506Z,100444.98
2017-08-14T23:34:33.919Z,100444.70
2017-08-14T23:37:01.323Z,100443.47
2017-08-14T23:39:28.724Z,100442.38
2017-08-14T23:41:56.134Z,100445.89
2017-08-14T23:44:23.534Z,100441.59
2017-08-14T23:46:50.930Z,100441.86
2017-08-14T23:49:18.341Z,100438.61
2017-08-14T23:51:45.743Z,100445.77
2017-08-14T23:54:13.139Z,100437.73
2017-08-14T23:56:40.556Z,100439.90
2017-08-14T23:59:07.961Z,100438.66
